TimeEST,TemperatureF,Dew PointF,Humidity,Sea Level PressureIn,VisibilityMPH,Wind Direction,Wind SpeedMPH,Gust SpeedMPH,PrecipitationIn,Events,Conditions,WindDirDegrees,DateUTC
12:15 AM,50.4,48.9,95,30.05,5.0,SSW,3.5,-,N/A,,Scattered Clouds,200,2012-12-09 05:15:00
12:35 AM,50.2,48.7,95,30.05,4.0,SSW,5.8,-,N/A,,Scattered Clouds,210,2012-12-09 05:35:00
12:55 AM,50.2,48.9,95,30.05,4.0,SSW,6.9,-,N/A,,Clear,210,2012-12-09 05:55:00
1:15 AM,50.2,48.9,95,30.05,4.0,SSW,5.8,-,N/A,,Scattered Clouds,210,2012-12-09 06:15:00
1:35 AM,51.1,50.0,96,30.05,5.0,SW,5.8,-,N/A,,Mostly Cloudy,220,2012-12-09 06:35:00
2:15 AM,50.9,49.6,95,30.06,4.0,SW,4.6,-,N/A,,Mostly Cloudy,220,2012-12-09 07:15:00
2:35 AM,50.9,49.6,95,30.06,2.5,SSW,3.5,-,N/A,,Scattered Clouds,200,2012-12-09 07:35:00
2:55 AM,50.4,49.3,96,30.06,2.0,SSW,4.6,-,N/A,,Clear,210,2012-12-09 07:55:00
3:15 AM,49.1,48.0,96,30.07,2.0,SSW,5.8,-,N/A,,Scattered Clouds,210,2012-12-09 08:15:00
3:35 AM,51.3,50.2,96,30.07,4.0,SW,5.8,-,N/A,,Scattered Clouds,220,2012-12-09 08:35:00
3:55 AM,50.7,49.6,96,30.07,3.0,SSW,5.8,-,N/A,,Scattered Clouds,210,2012-12-09 08:55:00
4:15 AM,51.6,50.5,96,30.06,4.0,SSW,4.6,-,N/A,,Mostly Cloudy,210,2012-12-09 09:15:00
4:35 AM,52.5,51.3,95,30.06,4.0,SSW,4.6,-,N/A,,Mostly Cloudy,200,2012-12-09 09:35:00
4:55 AM,52.9,51.8,96,30.07,5.0,SSW,5.8,-,N/A,Rain,Light Rain,210,2012-12-09 09:55:00
5:15 AM,53.4,52.2,95,30.07,4.0,SSW,6.9,-,0.01,Rain,Light Rain,210,2012-12-09 10:15:00
5:35 AM,53.1,51.8,95,30.07,5.0,SSW,5.8,-,0.01,Rain,Light Rain,200,2012-12-09 10:35:00
5:55 AM,53.6,52.2,95,30.08,5.0,SSW,5.8,-,0.01,,Mostly Cloudy,210,2012-12-09 10:55:00
6:15 AM,53.6,52.2,95,30.09,4.0,South,4.6,-,0.01,Rain,Light Rain,190,2012-12-09 11:15:00
6:35 AM,53.2,52.0,95,30.10,3.0,SW,4.6,-,0.01,Rain,Light Rain,220,2012-12-09 11:35:00
6:55 AM,53.6,52.2,95,30.10,4.0,SSW,5.8,-,0.01,,Overcast,200,2012-12-09 11:55:00
7:15 AM,53.6,52.3,95,30.10,4.0,SSW,5.8,-,N/A,,Overcast,200,2012-12-09 12:15:00
7:35 AM,53.6,52.3,95,30.11,3.0,SSW,6.9,-,N/A,,Overcast,210,2012-12-09 12:35:00
7:55 AM,54.5,53.1,95,30.11,3.0,SW,4.6,-,N/A,,Overcast,220,2012-12-09 12:55:00
8:15 AM,54.3,52.9,95,30.11,3.0,SSW,4.6,-,N/A,,Overcast,210,2012-12-09 13:15:00
8:35 AM,54.5,53.2,96,30.12,3.0,SSW,5.8,-,N/A,,Overcast,200,2012-12-09 13:35:00
8:55 AM,55.4,53.8,94,30.12,4.0,SSW,6.9,-,N/A,,Overcast,200,2012-12-09 13:55:00
9:15 AM,55.6,54.0,94,30.12,4.0,SSW,4.6,-,N/A,,Overcast,200,2012-12-09 14:15:00
9:35 AM,56.1,54.3,94,30.13,5.0,SSW,4.6,-,N/A,,Overcast,200,2012-12-09 14:35:00
9:55 AM,58.1,55.2,90,30.13,5.0,SSW,4.6,-,N/A,,Overcast,200,2012-12-09 14:55:00
10:15 AM,57.7,55.0,91,30.13,5.0,SSW,4.6,-,N/A,,Overcast,210,2012-12-09 15:15:00
10:35 AM,57.7,54.9,90,30.13,5.0,South,3.5,-,N/A,,Overcast,180,2012-12-09 15:35:00
10:55 AM,57.6,54.9,91,30.13,5.0,Calm,Calm,-,N/A,,Overcast,0,2012-12-09 15:55:00
11:35 AM,59.5,55.8,87,30.11,7.0,Calm,Calm,-,N/A,,Overcast,0,2012-12-09 16:35:00
11:55 AM,60.1,55.9,86,30.10,7.0,Calm,Calm,-,N/A,,Overcast,0,2012-12-09 16:55:00
12:15 PM,60.6,56.1,85,30.09,7.0,Calm,Calm,-,N/A,,Overcast,0,2012-12-09 17:15:00
12:35 PM,61.2,56.5,85,30.08,7.0,Calm,Calm,-,N/A,,Overcast,0,2012-12-09 17:35:00
12:55 PM,61.9,56.8,84,30.08,7.0,SSE,4.6,-,N/A,,Overcast,160,2012-12-09 17:55:00
1:15 PM,63.9,57.0,78,30.07,10.0,Calm,Calm,-,N/A,,Overcast,0,2012-12-09 18:15:00
1:35 PM,65.7,56.7,73,30.07,10.0,South,4.6,-,N/A,,Overcast,180,2012-12-09 18:35:00
1:55 PM,65.5,56.5,73,30.06,10.0,South,4.6,-,N/A,,Mostly Cloudy,180,2012-12-09 18:55:00
2:15 PM,65.3,56.7,74,30.07,10.0,Calm,Calm,-,N/A,,Mostly Cloudy,0,2012-12-09 19:15:00
2:35 PM,65.3,57.2,75,30.07,10.0,SSE,3.5,-,N/A,,Mostly Cloudy,160,2012-12-09 19:35:00
2:55 PM,66.6,57.6,73,30.06,10.0,SE,5.8,-,N/A,,Scattered Clouds,130,2012-12-09 19:55:00
3:15 PM,66.0,56.5,71,30.06,10.0,SE,5.8,-,N/A,,Clear,130,2012-12-09 20:15:00
3:35 PM,65.8,56.5,72,30.06,10.0,ESE,3.5,-,N/A,,Mostly Cloudy,120,2012-12-09 20:35:00
3:55 PM,66.0,56.7,72,30.05,10.0,ESE,3.5,-,N/A,,Mostly Cloudy,110,2012-12-09 20:55:00
4:15 PM,65.3,56.8,74,30.06,10.0,Calm,Calm,-,N/A,,Mostly Cloudy,0,2012-12-09 21:15:00
4:35 PM,64.4,56.8,76,30.06,10.0,Calm,Calm,-,N/A,,Mostly Cloudy,0,2012-12-09 21:35:00
4:55 PM,63.7,56.7,78,30.05,10.0,Calm,Calm,-,N/A,,Mostly Cloudy,0,2012-12-09 21:55:00
5:15 PM,63.9,56.5,77,30.05,10.0,Calm,Calm,-,N/A,,Scattered Clouds,0,2012-12-09 22:15:00
5:35 PM,64.2,57.2,78,30.05,10.0,SSE,3.5,-,N/A,,Mostly Cloudy,160,2012-12-09 22:35:00
5:55 PM,64.4,57.6,78,30.04,10.0,South,4.6,-,N/A,,Overcast,170,2012-12-09 22:55:00
6:15 PM,64.4,58.1,80,30.04,10.0,SSE,5.8,-,N/A,,Overcast,160,2012-12-09 23:15:00
6:35 PM,64.4,58.1,80,30.04,10.0,South,4.6,-,N/A,,Overcast,170,2012-12-09 23:35:00
6:55 PM,64.4,58.1,80,30.04,10.0,South,3.5,-,N/A,,Overcast,170,2012-12-09 23:55:00
7:15 PM,64.0,58.3,82,30.04,10.0,South,3.5,-,N/A,,Overcast,170,2012-12-10 00:15:00
7:35 PM,63.7,58.5,83,30.04,10.0,South,6.9,-,N/A,,Overcast,190,2012-12-10 00:35:00
7:55 PM,63.0,58.5,85,30.05,10.0,SSW,4.6,-,N/A,,Overcast,210,2012-12-10 00:55:00
8:15 PM,62.6,58.5,86,30.04,10.0,SSW,5.8,-,N/A,,Overcast,200,2012-12-10 01:15:00
8:35 PM,62.4,58.5,87,30.03,10.0,South,6.9,-,N/A,,Scattered Clouds,190,2012-12-10 01:35:00
8:55 PM,62.8,58.6,86,30.02,10.0,South,6.9,-,N/A,,Clear,190,2012-12-10 01:55:00
9:15 PM,62.8,58.5,86,30.02,10.0,South,8.1,-,N/A,,Clear,170,2012-12-10 02:15:00
9:35 PM,62.8,58.6,86,30.02,10.0,South,8.1,-,N/A,,Scattered Clouds,180,2012-12-10 02:35:00
9:55 PM,62.6,58.5,86,30.02,10.0,South,6.9,-,N/A,,Mostly Cloudy,180,2012-12-10 02:55:00
10:15 PM,61.7,58.5,89,30.02,10.0,South,5.8,-,N/A,,Scattered Clouds,180,2012-12-10 03:15:00
10:35 PM,61.7,58.6,90,30.02,10.0,South,8.1,-,N/A,,Clear,180,2012-12-10 03:35:00
10:55 PM,61.9,59.2,91,30.01,10.0,South,8.1,-,N/A,,Mostly Cloudy,180,2012-12-10 03:55:00
11:15 PM,61.7,59.2,91,30.00,10.0,South,6.9,-,N/A,,Mostly Cloudy,180,2012-12-10 04:15:00
11:35 PM,61.3,59.2,93,30.00,10.0,South,6.9,-,N/A,,Scattered Clouds,170,2012-12-10 04:35:00
11:55 PM,61.2,59.2,93,29.99,7.0,South,6.9,-,N/A,,Clear,180,2012-12-10 04:55:00